createdAt,value
2018-07-15T00:00:38.608Z,18.05
2018-07-15T00:02:31.616Z,18.00
2018-07-15T00:03:31.666Z,17.97
2018-07-15T00:05:24.670Z,18.00
2018-07-15T00:06:24.724Z,17.97
2018-07-15T00:08:17.717Z,18.15
2018-07-15T00:09:17.787Z,18.05
2018-07-15T00:11:10.781Z,17.86
2018-07-15T00:12:10.841Z,17.95
2018-07-15T00:14:03.835Z,17.83
2018-07-15T00:15:03.900Z,17.72
2018-07-15T00:16:56.905Z,17.65
2018-07-15T00:17:56.961Z,17.63
2018-07-15T00:19:49.972Z,17.64
2018-07-15T00:20:50.025Z,17.64
2018-07-15T00:22:43.029Z,17.63
2018-07-15T00:23:43.083Z,17.70
2018-07-15T00:25:36.105Z,17.60
2018-07-15T00:26:36.151Z,17.64
2018-07-15T00:28:29.144Z,17.63
2018-07-15T00:29:29.209Z,17.64
2018-07-15T00:31:22.207Z,17.68
2018-07-15T00:32:22.266Z,17.65
2018-07-15T00:34:15.258Z,17.68
2018-07-15T00:35:15.322Z,17.78
2018-07-15T00:37:08.321Z,17.82
2018-07-15T00:38:08.381Z,17.78
2018-07-15T00:40:01.373Z,17.78
2018-07-15T00:41:01.440Z,17.85
2018-07-15T00:42:54.441Z,17.70
2018-07-15T00:43:54.521Z,17.68
2018-07-15T00:45:47.494Z,17.63
2018-07-15T00:46:47.558Z,17.64
2018-07-15T00:48:40.568Z,17.65
2018-07-15T00:49:40.622Z,17.56
2018-07-15T00:51:33.621Z,17.60
2018-07-15T00:52:33.678Z,17.63
2018-07-15T00:54:26.671Z,17.59
2018-07-15T00:55:26.737Z,17.65
2018-07-15T00:57:19.735Z,17.54
2018-07-15T00:58:19.793Z,17.54
2018-07-15T01:00:12.791Z,17.52
2018-07-15T01:01:12.853Z,17.56
2018-07-15T01:03:05.856Z,17.51
2018-07-15T01:04:05.910Z,17.48
2018-07-15T01:05:58.907Z,17.36
2018-07-15T01:06:58.965Z,17.39
2018-07-15T01:08:51.965Z,17.42
2018-07-15T01:09:52.023Z,17.34
2018-07-15T01:11:45.016Z,17.26
2018-07-15T01:12:45.079Z,17.33
2018-07-15T01:14:38.078Z,17.14
2018-07-15T01:15:38.136Z,17.12
2018-07-15T01:17:31.136Z,17.22
2018-07-15T01:18:31.195Z,17.19
2018-07-15T01:20:24.188Z,17.08
2018-07-15T01:21:24.249Z,17.08
2018-07-15T01:23:17.249Z,17.06
2018-07-15T01:24:17.308Z,16.93
2018-07-15T01:26:10.301Z,16.99
2018-07-15T01:27:10.365Z,16.99
2018-07-15T01:29:03.881Z,16.86
2018-07-15T01:30:03.934Z,16.84
2018-07-15T01:31:56.923Z,16.79
2018-07-15T01:32:56.987Z,16.83
2018-07-15T01:34:50.029Z,16.76
2018-07-15T01:35:50.083Z,16.90
2018-07-15T01:37:43.097Z,16.76
2018-07-15T01:38:43.149Z,16.76
2018-07-15T01:40:36.138Z,16.65
2018-07-15T01:41:36.210Z,16.64
2018-07-15T01:43:29.205Z,16.65
2018-07-15T01:44:29.261Z,16.61
2018-07-15T01:46:22.260Z,16.66
2018-07-15T01:47:22.321Z,16.51
2018-07-15T01:49:15.319Z,16.61
2018-07-15T01:50:15.379Z,16.64
2018-07-15T01:52:08.374Z,16.60
2018-07-15T01:53:08.433Z,16.69
2018-07-15T01:55:01.436Z,16.60
2018-07-15T01:56:01.496Z,16.56
2018-07-15T01:57:54.520Z,16.57
2018-07-15T01:58:54.558Z,16.56
2018-07-15T02:00:47.553Z,16.50
2018-07-15T02:01:47.618Z,16.56
2018-07-15T02:03:40.617Z,16.54
2018-07-15T02:04:40.674Z,16.60
2018-07-15T02:06:33.663Z,16.49
2018-07-15T02:07:33.729Z,16.41
2018-07-15T02:09:26.730Z,16.42
2018-07-15T02:10:26.783Z,16.41
2018-07-15T02:12:19.774Z,16.49
2018-07-15T02:13:19.838Z,16.46
2018-07-15T02:15:12.839Z,16.50
2018-07-15T02:16:12.897Z,16.51
2018-07-15T02:18:05.912Z,16.54
2018-07-15T02:19:05.977Z,16.46
2018-07-15T02:20:58.976Z,16.43
2018-07-15T02:21:59.031Z,16.50
2018-07-15T02:23:52.050Z,16.46
2018-07-15T02:24:52.094Z,16.39
2018-07-15T02:26:45.087Z,16.49
2018-07-15T02:27:45.147Z,16.51
2018-07-15T02:29:38.660Z,16.39
2018-07-15T02:30:38.714Z,16.39
2018-07-15T02:32:31.706Z,16.46
2018-07-15T02:33:31.771Z,16.33
2018-07-15T02:35:24.768Z,16.21
2018-07-15T02:36:24.822Z,16.39
2018-07-15T02:38:17.828Z,16.21
2018-07-15T02:39:17.879Z,16.20
2018-07-15T02:41:10.881Z,16.20
2018-07-15T02:42:10.939Z,16.35
2018-07-15T02:44:03.989Z,16.38
2018-07-15T02:45:04.054Z,16.35
2018-07-15T02:46:57.049Z,16.33
2018-07-15T02:47:57.106Z,16.16
2018-07-15T02:49:50.107Z,16.23
2018-07-15T02:50:50.162Z,16.17
2018-07-15T02:52:43.152Z,16.26
2018-07-15T02:53:43.214Z,16.32
2018-07-15T02:55:36.213Z,16.36
2018-07-15T02:56:36.269Z,16.35
2018-07-15T02:58:29.260Z,16.33
2018-07-15T02:59:29.323Z,16.21
2018-07-15T03:01:22.320Z,16.23
2018-07-15T03:02:22.376Z,16.28
2018-07-15T03:04:15.371Z,16.21
2018-07-15T03:05:15.433Z,16.21
2018-07-15T03:07:08.426Z,16.17
2018-07-15T03:08:08.485Z,16.20
2018-07-15T03:10:01.497Z,16.15
2018-07-15T03:11:01.538Z,16.23
2018-07-15T03:12:54.548Z,16.17
2018-07-15T03:13:54.598Z,16.12
2018-07-15T03:15:47.599Z,15.98
2018-07-15T03:16:47.656Z,15.98
2018-07-15T03:18:40.649Z,15.86
2018-07-15T03:19:40.713Z,15.94
2018-07-15T03:21:33.715Z,15.91
2018-07-15T03:22:33.770Z,15.84
2018-07-15T03:24:26.757Z,15.75
2018-07-15T03:25:26.822Z,15.76
2018-07-15T03:27:19.820Z,15.82
2018-07-15T03:28:19.876Z,15.77
2018-07-15T03:30:13.382Z,15.79
2018-07-15T03:31:13.440Z,15.75
2018-07-15T03:33:06.446Z,15.80
2018-07-15T03:34:06.537Z,15.73
2018-07-15T03:35:59.500Z,15.68
2018-07-15T03:36:59.556Z,15.67
2018-07-15T03:38:52.548Z,15.72
2018-07-15T03:39:52.664Z,15.70
2018-07-15T03:41:45.615Z,15.76
2018-07-15T03:42:45.671Z,15.80
2018-07-15T03:44:38.661Z,15.88
2018-07-15T03:45:38.726Z,15.83
2018-07-15T03:47:31.727Z,15.67
2018-07-15T03:48:31.782Z,15.76
2018-07-15T03:50:24.781Z,15.77
2018-07-15T03:51:24.845Z,15.77
2018-07-15T03:53:17.873Z,15.72
2018-07-15T03:54:17.897Z,15.73
2018-07-15T03:56:10.894Z,15.79
2018-07-15T03:57:10.958Z,15.82
2018-07-15T03:59:03.954Z,15.79
2018-07-15T04:00:04.011Z,15.72
2018-07-15T04:01:57.029Z,15.80
2018-07-15T04:02:57.070Z,15.77
2018-07-15T04:04:50.064Z,15.82
2018-07-15T04:05:50.127Z,15.80
2018-07-15T04:07:43.131Z,15.73
2018-07-15T04:08:43.307Z,15.83
2018-07-15T04:10:36.194Z,15.90
2018-07-15T04:11:36.243Z,15.91
2018-07-15T04:13:29.250Z,15.83
2018-07-15T04:14:29.298Z,15.91
2018-07-15T04:16:22.296Z,15.88
2018-07-15T04:17:22.359Z,15.94
2018-07-15T04:19:15.360Z,15.98
2018-07-15T04:20:15.412Z,15.95
2018-07-15T04:22:08.410Z,15.95
2018-07-15T04:23:08.473Z,16.00
2018-07-15T04:25:01.482Z,15.98
2018-07-15T04:26:01.538Z,16.00
2018-07-15T04:27:54.542Z,15.94
2018-07-15T04:28:54.600Z,16.05
2018-07-15T04:30:47.591Z,16.05
2018-07-15T04:31:47.653Z,16.02
2018-07-15T04:33:40.650Z,16.01
2018-07-15T04:34:40.710Z,16.04
2018-07-15T04:36:33.724Z,16.05
2018-07-15T04:37:33.768Z,16.04
2018-07-15T04:39:26.763Z,16.15
2018-07-15T04:40:26.822Z,16.10
2018-07-15T04:42:19.871Z,16.12
2018-07-15T04:43:19.934Z,16.09
2018-07-15T04:45:12.935Z,16.13
2018-07-15T04:46:12.992Z,16.17
2018-07-15T04:48:06.008Z,16.04
2018-07-15T04:49:06.046Z,16.10
2018-07-15T04:50:59.043Z,16.10
2018-07-15T04:51:59.098Z,16.20
2018-07-15T04:53:52.095Z,16.16
2018-07-15T04:54:52.151Z,16.17
2018-07-15T04:56:45.704Z,16.15
2018-07-15T04:57:45.718Z,16.15
2018-07-15T04:59:38.716Z,16.20
2018-07-15T05:00:38.770Z,16.21
2018-07-15T05:02:31.760Z,16.17
2018-07-15T05:03:31.824Z,16.13
2018-07-15T05:05:24.822Z,16.31
2018-07-15T05:06:24.905Z,16.29
2018-07-15T05:08:17.868Z,16.24
2018-07-15T05:09:17.932Z,16.32
2018-07-15T05:11:10.945Z,16.29
2018-07-15T05:12:10.984Z,16.26
2018-07-15T05:14:03.985Z,16.20
2018-07-15T05:15:04.048Z,16.29
2018-07-15T05:16:57.044Z,16.28
2018-07-15T05:17:57.100Z,16.20
2018-07-15T05:19:50.097Z,16.33
2018-07-15T05:20:50.153Z,16.31
2018-07-15T05:22:43.144Z,16.31
2018-07-15T05:23:43.210Z,16.33
2018-07-15T05:25:36.205Z,16.39
2018-07-15T05:26:36.261Z,16.42
2018-07-15T05:28:29.251Z,16.42
2018-07-15T05:29:29.318Z,16.39
2018-07-15T05:31:22.332Z,16.42
2018-07-15T05:32:22.366Z,16.46
2018-07-15T05:34:15.363Z,16.43
2018-07-15T05:35:15.429Z,16.43
2018-07-15T05:37:08.423Z,16.53
2018-07-15T05:38:08.480Z,16.64
2018-07-15T05:40:01.494Z,16.64
2018-07-15T05:41:01.543Z,16.68
2018-07-15T05:42:54.534Z,16.76
2018-07-15T05:43:54.595Z,16.79
2018-07-15T05:45:47.601Z,16.84
2018-07-15T05:46:47.659Z,16.86
2018-07-15T05:48:40.649Z,16.81
2018-07-15T05:49:40.711Z,16.91
2018-07-15T05:51:33.709Z,17.01
2018-07-15T05:52:33.764Z,17.11
2018-07-15T05:54:26.754Z,17.20
2018-07-15T05:55:26.819Z,17.24
2018-07-15T05:57:20.331Z,17.34
2018-07-15T05:58:20.385Z,17.48
2018-07-15T06:00:13.383Z,17.54
2018-07-15T06:01:13.441Z,17.65
2018-07-15T06:03:06.438Z,17.68
2018-07-15T06:04:06.498Z,17.78
2018-07-15T06:05:59.504Z,17.92
2018-07-15T06:11:03.717Z,18.07
2018-07-15T06:12:03.282Z,18.19
2018-07-15T06:13:57.714Z,18.52
2018-07-15T06:14:57.776Z,18.63
2018-07-15T06:16:50.773Z,18.99
2018-07-15T06:17:50.828Z,19.41
2018-07-15T06:19:43.845Z,19.92
2018-07-15T06:20:43.881Z,20.37
2018-07-15T06:22:36.898Z,22.13
2018-07-15T06:23:36.938Z,23.51
2018-07-15T06:25:29.937Z,25.50
2018-07-15T06:26:30.006Z,26.22
2018-07-15T06:28:23.010Z,27.36
2018-07-15T06:29:23.058Z,28.22
2018-07-15T06:31:16.053Z,29.16
2018-07-15T06:32:16.117Z,29.71
2018-07-15T06:34:09.124Z,30.43
2018-07-15T06:35:09.175Z,30.18
2018-07-15T06:37:02.196Z,30.44
2018-07-15T06:38:02.259Z,30.99
2018-07-15T06:39:55.259Z,30.83
2018-07-15T06:40:55.330Z,30.57
2018-07-15T06:42:48.346Z,30.57
2018-07-15T06:43:48.411Z,30.90
2018-07-15T06:45:41.420Z,30.92
2018-07-15T06:46:41.493Z,31.24
2018-07-15T06:48:34.502Z,31.61
2018-07-15T06:49:34.572Z,31.87
2018-07-15T06:51:27.583Z,31.66
2018-07-15T06:52:27.656Z,32.45
2018-07-15T06:54:20.674Z,32.89
2018-07-15T06:55:20.739Z,33.28
2018-07-15T06:57:13.752Z,32.77
2018-07-15T06:58:13.846Z,32.70
2018-07-15T07:00:06.848Z,32.71
2018-07-15T07:01:06.915Z,32.90
2018-07-15T07:02:59.933Z,33.96
2018-07-15T07:04:00.005Z,34.43
2018-07-15T07:05:53.016Z,33.65
2018-07-15T07:06:53.092Z,33.96
2018-07-15T07:08:46.110Z,34.47
2018-07-15T07:09:46.178Z,34.30
2018-07-15T07:11:39.205Z,34.78
2018-07-15T07:12:39.278Z,34.54
2018-07-15T07:14:32.325Z,34.43
2018-07-15T07:15:32.376Z,35.00
2018-07-15T07:17:25.388Z,35.53
2018-07-15T07:18:25.492Z,35.61
2018-07-15T07:20:18.489Z,35.30
2018-07-15T07:21:18.563Z,35.58
2018-07-15T07:23:11.599Z,34.52
2018-07-15T07:24:11.660Z,35.26
2018-07-15T07:26:04.682Z,35.46
2018-07-15T07:27:04.755Z,35.71
2018-07-15T07:28:57.870Z,35.49
2018-07-15T07:29:57.869Z,34.99
2018-07-15T07:31:50.873Z,34.52
2018-07-15T07:32:50.966Z,34.14
2018-07-15T07:34:44.005Z,33.53
2018-07-15T07:35:44.067Z,33.73
2018-07-15T07:37:37.084Z,34.78
2018-07-15T07:38:37.166Z,35.10
2018-07-15T07:40:30.175Z,34.21
2018-07-15T07:41:30.261Z,34.70
2018-07-15T07:43:23.276Z,34.95
2018-07-15T07:44:23.355Z,33.87
2018-07-15T07:46:16.382Z,34.18
2018-07-15T07:47:16.463Z,33.42
2018-07-15T07:49:09.488Z,32.21
2018-07-15T07:50:09.572Z,32.65
2018-07-15T07:52:03.097Z,34.11
2018-07-15T07:53:03.168Z,33.71
2018-07-15T07:54:56.211Z,34.16
2018-07-15T07:55:56.272Z,34.85
2018-07-15T07:57:49.314Z,35.07
2018-07-15T07:58:49.390Z,34.36
2018-07-15T08:00:42.422Z,33.52
2018-07-15T08:01:42.491Z,34.17
2018-07-15T08:03:35.509Z,34.48
2018-07-15T08:04:35.587Z,34.74
2018-07-15T08:06:28.625Z,35.04
2018-07-15T08:07:28.721Z,35.29
2018-07-15T08:09:21.723Z,36.17
2018-07-15T08:10:21.798Z,36.62
2018-07-15T08:12:14.827Z,35.88
2018-07-15T08:13:14.900Z,36.14
2018-07-15T08:15:07.998Z,36.37
2018-07-15T08:16:08.005Z,35.55
2018-07-15T08:18:01.042Z,35.88
2018-07-15T08:19:01.110Z,36.37
2018-07-15T08:20:54.158Z,35.70
2018-07-15T08:21:54.224Z,36.09
2018-07-15T08:23:47.242Z,36.99
2018-07-15T08:24:47.321Z,36.99
2018-07-15T08:26:40.461Z,37.03
2018-07-15T08:27:40.432Z,37.35
2018-07-15T08:29:33.483Z,37.44
2018-07-15T08:30:33.541Z,37.23
2018-07-15T08:32:26.576Z,37.30
2018-07-15T08:33:26.649Z,37.29
2018-07-15T08:35:19.680Z,37.30
2018-07-15T08:36:19.755Z,37.25
2018-07-15T08:38:12.784Z,37.40
2018-07-15T08:39:12.866Z,37.10
2018-07-15T08:41:05.904Z,37.18
2018-07-15T08:42:05.980Z,37.35
2018-07-15T08:43:59.014Z,37.25
2018-07-15T08:44:59.096Z,37.32
2018-07-15T08:46:52.133Z,37.71
2018-07-15T08:47:52.214Z,37.87
2018-07-15T08:49:45.233Z,38.31
2018-07-15T08:50:45.313Z,36.62
2018-07-15T08:52:38.855Z,36.68
2018-07-15T08:53:38.928Z,36.40
2018-07-15T08:55:31.966Z,36.55
2018-07-15T08:56:32.062Z,35.76
2018-07-15T08:58:25.066Z,36.49
2018-07-15T08:59:25.149Z,37.07
2018-07-15T09:01:18.182Z,36.99
2018-07-15T09:02:18.923Z,37.23
2018-07-15T09:04:11.279Z,38.14
2018-07-15T09:05:11.373Z,38.14
2018-07-15T09:07:04.413Z,38.39
2018-07-15T09:08:04.496Z,38.30
2018-07-15T09:09:57.522Z,38.26
2018-07-15T09:10:57.605Z,38.42
2018-07-15T09:12:50.645Z,36.95
2018-07-15T09:13:50.720Z,36.98
2018-07-15T09:15:43.752Z,37.60
2018-07-15T09:16:43.833Z,36.77
2018-07-15T09:18:36.870Z,36.01
2018-07-15T09:19:36.944Z,36.25
2018-07-15T09:21:29.974Z,36.24
2018-07-15T09:22:30.058Z,36.39
2018-07-15T09:24:23.089Z,37.26
2018-07-15T09:25:23.166Z,37.48
2018-07-15T09:27:16.201Z,37.02
2018-07-15T09:28:16.278Z,35.89
2018-07-15T09:30:09.304Z,36.01
2018-07-15T09:31:09.399Z,35.45
2018-07-15T09:33:02.429Z,35.00
2018-07-15T09:34:02.508Z,34.71
2018-07-15T09:35:55.530Z,33.36
2018-07-15T09:36:55.613Z,32.82
2018-07-15T09:38:48.652Z,31.62
2018-07-15T09:39:49.019Z,30.63
2018-07-15T09:41:41.745Z,30.06
2018-07-15T09:42:41.826Z,30.09
2018-07-15T09:44:34.854Z,30.06
2018-07-15T09:45:34.928Z,29.76
2018-07-15T09:47:27.944Z,29.90
2018-07-15T09:48:28.023Z,29.84
2018-07-15T09:50:21.188Z,28.45
2018-07-15T09:51:21.120Z,28.37
2018-07-15T09:53:14.139Z,28.19
2018-07-15T09:54:14.207Z,28.26
2018-07-15T09:56:07.242Z,28.75
2018-07-15T09:57:07.294Z,28.85
2018-07-15T09:59:00.312Z,29.08
2018-07-15T10:00:00.388Z,29.19
2018-07-15T10:01:53.402Z,28.81
2018-07-15T10:02:53.582Z,28.76
2018-07-15T10:04:46.591Z,28.25
2018-07-15T10:05:46.568Z,27.67
2018-07-15T10:07:39.601Z,27.21
2018-07-15T10:08:39.651Z,27.32
2018-07-15T10:10:32.683Z,27.40
2018-07-15T10:11:32.733Z,27.64
2018-07-15T10:13:25.748Z,27.82
2018-07-15T10:14:25.814Z,27.93
2018-07-15T10:16:18.822Z,28.10
2018-07-15T10:17:18.891Z,28.08
2018-07-15T10:19:11.907Z,27.74
2018-07-15T10:20:11.981Z,27.93
2018-07-15T10:22:05.004Z,27.55
2018-07-15T10:23:05.068Z,27.30
2018-07-15T10:24:58.083Z,27.33
2018-07-15T10:25:58.145Z,27.17
2018-07-15T10:27:51.156Z,27.32
2018-07-15T10:28:51.229Z,27.40
2018-07-15T10:30:44.240Z,27.33
2018-07-15T10:31:44.305Z,27.17
2018-07-15T10:33:37.327Z,27.03
2018-07-15T10:34:37.383Z,27.00
2018-07-15T10:36:30.402Z,26.99
2018-07-15T10:37:30.465Z,26.89
2018-07-15T10:39:23.480Z,27.20
2018-07-15T10:40:23.546Z,27.27
2018-07-15T10:42:16.550Z,27.47
2018-07-15T10:43:16.622Z,27.37
2018-07-15T10:45:09.632Z,27.47
2018-07-15T10:46:09.733Z,27.45
2018-07-15T10:48:02.695Z,27.54
2018-07-15T10:49:02.767Z,27.63
2018-07-15T10:50:55.783Z,27.68
2018-07-15T10:51:55.847Z,27.64
2018-07-15T10:53:48.852Z,27.37
2018-07-15T10:54:48.924Z,27.14
2018-07-15T10:56:41.942Z,27.08
2018-07-15T10:57:41.999Z,27.10
2018-07-15T10:59:35.012Z,27.25
2018-07-15T11:00:35.075Z,27.36
2018-07-15T11:02:28.093Z,27.40
2018-07-15T11:03:28.150Z,27.49
2018-07-15T11:05:21.167Z,27.30
2018-07-15T11:06:21.286Z,27.35
2018-07-15T11:08:14.237Z,27.49
2018-07-15T11:09:14.307Z,27.51
2018-07-15T11:11:07.343Z,27.86
2018-07-15T11:12:07.385Z,27.73
2018-07-15T11:14:00.389Z,27.64
2018-07-15T11:15:00.459Z,27.68
2018-07-15T11:16:53.472Z,27.73
2018-07-15T11:17:53.538Z,27.70
2018-07-15T11:19:46.558Z,27.15
2018-07-15T11:20:46.622Z,27.05
2018-07-15T11:22:39.629Z,27.08
2018-07-15T11:23:39.698Z,27.17
2018-07-15T11:25:32.710Z,27.05
2018-07-15T11:26:32.772Z,27.11
2018-07-15T11:28:25.779Z,27.11
2018-07-15T11:29:25.843Z,27.14
2018-07-15T11:31:18.922Z,27.03
2018-07-15T11:32:18.959Z,27.11
2018-07-15T11:34:12.197Z,27.25
2018-07-15T11:35:12.032Z,27.36
2018-07-15T11:37:05.160Z,27.45
2018-07-15T11:38:05.113Z,27.64
2018-07-15T11:39:58.336Z,27.77
2018-07-15T11:40:58.180Z,27.77
2018-07-15T11:42:51.279Z,27.87
2018-07-15T11:43:51.265Z,27.93
2018-07-15T11:45:44.422Z,27.87
2018-07-15T11:46:44.690Z,27.73
2018-07-15T11:48:37.894Z,27.51
2018-07-15T11:49:37.919Z,27.36
2018-07-15T11:51:30.948Z,27.32
2018-07-15T11:52:31.012Z,27.42
2018-07-15T11:54:24.082Z,27.52
2018-07-15T11:55:24.086Z,27.51
2018-07-15T11:57:17.098Z,27.58
2018-07-15T11:58:17.160Z,27.70
2018-07-15T12:00:10.680Z,27.74
2018-07-15T12:01:10.741Z,27.77
2018-07-15T12:03:03.747Z,27.75
2018-07-15T12:04:03.815Z,27.74
2018-07-15T12:05:56.822Z,27.73
2018-07-15T12:06:56.884Z,27.74
2018-07-15T12:08:49.888Z,27.70
2018-07-15T12:09:49.959Z,27.67
2018-07-15T12:11:42.970Z,27.68
2018-07-15T12:12:43.034Z,27.68
2018-07-15T12:14:36.068Z,27.82
2018-07-15T12:15:36.116Z,27.90
2018-07-15T12:17:29.122Z,28.07
2018-07-15T12:18:29.188Z,28.08
2018-07-15T12:20:22.229Z,28.14
2018-07-15T12:21:22.260Z,28.14
2018-07-15T12:23:15.267Z,28.15
2018-07-15T12:24:15.331Z,28.04
2018-07-15T12:26:08.346Z,27.75
2018-07-15T12:27:08.408Z,27.74
2018-07-15T12:29:01.421Z,27.49
2018-07-15T12:30:01.491Z,27.40
2018-07-15T12:31:54.501Z,27.47
2018-07-15T12:32:54.566Z,27.51
2018-07-15T12:34:47.570Z,27.60
2018-07-15T12:35:47.637Z,27.51
2018-07-15T12:37:40.653Z,27.68
2018-07-15T12:38:40.710Z,27.68
2018-07-15T12:40:33.740Z,27.59
2018-07-15T12:41:33.786Z,27.52
2018-07-15T12:43:26.822Z,27.55
2018-07-15T12:44:26.857Z,27.58
2018-07-15T12:46:19.864Z,27.77
2018-07-15T12:47:19.928Z,27.86
2018-07-15T12:49:12.935Z,27.75
2018-07-15T12:50:13.004Z,27.92
2018-07-15T12:52:06.074Z,27.90
2018-07-15T12:53:06.077Z,27.75
2018-07-15T12:54:59.078Z,27.74
2018-07-15T12:55:59.148Z,27.77
2018-07-15T12:57:52.160Z,27.77
2018-07-15T12:58:52.221Z,27.74
2018-07-15T13:00:45.734Z,27.93
2018-07-15T13:01:45.800Z,27.92
2018-07-15T13:03:38.815Z,27.95
2018-07-15T13:04:38.875Z,27.90
2018-07-15T13:06:31.884Z,27.78
2018-07-15T13:07:31.952Z,27.86
2018-07-15T13:09:24.951Z,27.85
2018-07-15T13:10:25.020Z,27.95
2018-07-15T13:12:18.031Z,27.89
2018-07-15T13:13:18.093Z,27.87
2018-07-15T13:15:11.103Z,27.90
2018-07-15T13:16:11.212Z,27.95
2018-07-15T13:18:04.187Z,27.90
2018-07-15T13:19:04.247Z,27.89
2018-07-15T13:20:57.260Z,28.04
2018-07-15T13:21:57.333Z,28.01
2018-07-15T13:23:50.337Z,27.89
2018-07-15T13:24:50.390Z,28.00
2018-07-15T13:26:43.400Z,27.85
2018-07-15T13:27:43.469Z,27.90
2018-07-15T13:29:36.519Z,27.98
2018-07-15T13:30:36.543Z,28.02
2018-07-15T13:32:29.554Z,28.05
2018-07-15T13:33:29.616Z,28.07
2018-07-15T13:35:22.621Z,27.92
2018-07-15T13:36:22.688Z,27.93
2018-07-15T13:38:15.701Z,27.95
2018-07-15T13:39:15.761Z,28.05
2018-07-15T13:41:08.768Z,28.04
2018-07-15T13:42:08.835Z,28.08
2018-07-15T13:44:01.845Z,28.01
2018-07-15T13:45:01.905Z,28.07
2018-07-15T13:46:54.908Z,28.04
2018-07-15T13:47:54.979Z,28.00
2018-07-15T13:49:47.988Z,28.00
2018-07-15T13:50:48.050Z,28.04
2018-07-15T13:52:41.063Z,27.98
2018-07-15T13:53:41.126Z,28.01
2018-07-15T13:55:34.144Z,27.90
2018-07-15T13:56:34.207Z,27.87
2018-07-15T13:58:27.269Z,27.98
2018-07-15T13:59:27.285Z,27.96
2018-07-15T14:01:20.798Z,27.87
2018-07-15T14:02:20.867Z,27.92
2018-07-15T14:04:13.948Z,27.98
2018-07-15T14:05:13.940Z,27.92
2018-07-15T14:07:06.943Z,27.77
2018-07-15T14:08:07.012Z,27.90
2018-07-15T14:10:00.030Z,27.77
2018-07-15T14:11:00.086Z,27.68
2018-07-15T14:12:53.095Z,27.75
2018-07-15T14:13:53.165Z,27.77
2018-07-15T14:15:46.171Z,27.93
2018-07-15T14:16:46.234Z,27.80
2018-07-15T14:18:39.263Z,27.75
2018-07-15T14:19:39.308Z,27.80
2018-07-15T14:21:32.381Z,27.82
2018-07-15T14:22:32.381Z,27.87
2018-07-15T14:24:25.395Z,27.96
2018-07-15T14:25:25.457Z,28.07
2018-07-15T14:27:18.462Z,28.08
2018-07-15T14:28:18.531Z,28.17
2018-07-15T14:30:11.564Z,28.10
2018-07-15T14:31:11.626Z,28.10
2018-07-15T14:33:04.633Z,28.05
2018-07-15T14:34:04.701Z,28.04
2018-07-15T14:35:57.718Z,28.08
2018-07-15T14:36:57.784Z,28.11
2018-07-15T14:38:50.779Z,28.04
2018-07-15T14:39:50.844Z,28.07
2018-07-15T14:41:43.859Z,28.14
2018-07-15T14:42:43.921Z,28.04
2018-07-15T14:44:36.948Z,28.07
2018-07-15T14:45:37.948Z,28.05
2018-07-15T14:47:29.997Z,27.90
2018-07-15T14:48:30.064Z,28.07
2018-07-15T14:50:23.072Z,28.10
2018-07-15T14:51:23.141Z,28.15
2018-07-15T14:53:16.146Z,28.17
2018-07-15T14:54:16.209Z,28.15
2018-07-15T14:56:09.284Z,28.22
2018-07-15T14:57:09.274Z,28.25
2018-07-15T14:59:02.287Z,28.26
2018-07-15T15:00:02.380Z,28.26
2018-07-15T15:01:55.420Z,28.07
2018-07-15T15:02:55.428Z,28.15
2018-07-15T15:04:48.459Z,28.10
2018-07-15T15:05:48.501Z,28.14
2018-07-15T15:07:41.508Z,28.14
2018-07-15T15:08:41.583Z,27.92
2018-07-15T15:10:34.589Z,28.07
2018-07-15T15:11:34.651Z,28.07
2018-07-15T15:13:27.657Z,28.05
2018-07-15T15:14:27.740Z,28.14
2018-07-15T15:16:20.737Z,28.14
2018-07-15T15:17:20.802Z,28.10
2018-07-15T15:19:13.849Z,28.14
2018-07-15T15:20:13.874Z,28.11
2018-07-15T15:22:06.891Z,28.11
2018-07-15T15:23:06.950Z,28.04
2018-07-15T15:24:59.955Z,28.10
2018-07-15T15:26:00.028Z,28.08
2018-07-15T15:27:53.028Z,28.04
2018-07-15T15:28:53.130Z,28.12
2018-07-15T15:30:46.107Z,28.08
2018-07-15T15:31:46.172Z,28.05
2018-07-15T15:33:39.297Z,28.02
2018-07-15T15:34:39.273Z,28.12
2018-07-15T15:36:32.270Z,27.87
2018-07-15T15:37:32.331Z,27.92
2018-07-15T15:39:25.350Z,27.90
2018-07-15T15:40:25.418Z,28.04
2018-07-15T15:42:18.467Z,27.98
2018-07-15T15:43:18.492Z,28.04
2018-07-15T15:45:11.497Z,28.08
2018-07-15T15:46:11.566Z,28.10
2018-07-15T15:48:04.575Z,28.05
2018-07-15T15:49:04.637Z,28.05
2018-07-15T15:50:57.642Z,28.10
2018-07-15T15:51:57.810Z,28.05
2018-07-15T15:53:50.733Z,28.02
2018-07-15T15:54:50.797Z,28.05
2018-07-15T15:56:43.879Z,28.02
2018-07-15T15:57:43.887Z,28.02
2018-07-15T15:59:36.920Z,28.01
2018-07-15T16:00:36.962Z,27.87
2018-07-15T16:02:29.982Z,27.80
2018-07-15T16:03:30.125Z,27.75
2018-07-15T16:05:23.046Z,27.87
2018-07-15T16:06:23.126Z,27.92
2018-07-15T16:08:16.125Z,28.05
2018-07-15T16:09:16.189Z,27.92
2018-07-15T16:11:09.198Z,27.90
2018-07-15T16:12:09.260Z,27.89
2018-07-15T16:14:02.268Z,27.85
2018-07-15T16:15:02.330Z,27.80
2018-07-15T16:16:55.338Z,27.73
2018-07-15T16:17:55.404Z,27.68
2018-07-15T16:19:48.413Z,27.70
2018-07-15T16:20:48.477Z,27.68
2018-07-15T16:22:41.488Z,27.51
2018-07-15T16:23:41.551Z,27.49
2018-07-15T16:25:34.552Z,27.65
2018-07-15T16:26:34.625Z,27.70
2018-07-15T16:28:27.629Z,27.67
2018-07-15T16:29:27.691Z,27.73
2018-07-15T16:31:20.694Z,27.68
2018-07-15T16:32:20.764Z,27.67
2018-07-15T16:34:13.874Z,27.68
2018-07-15T16:35:13.832Z,27.68
2018-07-15T16:37:06.866Z,27.65
2018-07-15T16:38:06.935Z,27.51
2018-07-15T16:39:59.944Z,27.51
2018-07-15T16:41:00.061Z,27.64
2018-07-15T16:42:53.018Z,27.68
2018-07-15T16:43:53.092Z,27.68
2018-07-15T16:45:46.089Z,27.77
2018-07-15T16:46:46.153Z,27.80
2018-07-15T16:48:39.180Z,27.78
2018-07-15T16:49:39.271Z,27.77
2018-07-15T16:51:32.255Z,27.74
2018-07-15T16:52:32.324Z,27.74
2018-07-15T16:54:25.333Z,27.65
2018-07-15T16:55:25.396Z,27.65
2018-07-15T16:57:18.400Z,27.74
2018-07-15T16:58:18.464Z,27.67
2018-07-15T17:00:11.475Z,27.70
2018-07-15T17:01:11.539Z,27.75
2018-07-15T17:03:04.626Z,27.64
2018-07-15T17:04:04.630Z,27.68
2018-07-15T17:05:57.661Z,27.47
2018-07-15T17:06:57.756Z,27.37
2018-07-15T17:08:50.789Z,27.29
2018-07-15T17:09:50.785Z,27.37
2018-07-15T17:11:43.806Z,27.37
2018-07-15T17:12:43.858Z,27.30
2018-07-15T17:14:36.877Z,27.29
2018-07-15T17:15:36.952Z,27.33
2018-07-15T17:17:29.945Z,27.30
2018-07-15T17:18:30.014Z,27.29
2018-07-15T17:20:23.021Z,27.26
2018-07-15T17:21:23.089Z,27.18
2018-07-15T17:23:16.093Z,27.27
2018-07-15T17:24:16.165Z,27.36
2018-07-15T17:26:09.172Z,27.30
2018-07-15T17:27:09.233Z,27.26
2018-07-15T17:29:02.238Z,27.22
2018-07-15T17:30:02.304Z,27.25
2018-07-15T17:31:55.318Z,27.12
2018-07-15T17:32:55.375Z,27.11
2018-07-15T17:34:48.381Z,27.17
2018-07-15T17:35:48.446Z,27.14
2018-07-15T17:37:41.457Z,27.00
2018-07-15T17:38:41.519Z,27.08
2018-07-15T17:40:34.589Z,27.05
2018-07-15T17:41:34.593Z,27.05
2018-07-15T17:43:27.597Z,27.02
2018-07-15T17:44:27.666Z,26.99
2018-07-15T17:46:20.683Z,26.96
2018-07-15T17:47:20.735Z,26.97
2018-07-15T17:49:13.737Z,27.10
2018-07-15T17:50:13.809Z,27.07
2018-07-15T17:52:06.819Z,27.00
2018-07-15T17:53:06.919Z,26.88
2018-07-15T17:54:59.890Z,26.96
2018-07-15T17:55:59.952Z,26.97
2018-07-15T17:57:52.988Z,26.99
2018-07-15T17:58:53.084Z,27.00
2018-07-15T18:00:46.536Z,26.97
2018-07-15T18:01:46.601Z,26.95
2018-07-15T18:03:39.605Z,26.96
2018-07-15T18:04:39.818Z,26.90
2018-07-15T18:06:32.691Z,26.88
2018-07-15T18:07:32.750Z,26.90
2018-07-15T18:09:25.805Z,26.93
2018-07-15T18:10:25.829Z,26.88
2018-07-15T18:12:18.845Z,26.78
2018-07-15T18:13:18.901Z,26.74
2018-07-15T18:15:11.919Z,26.77
2018-07-15T18:16:12.022Z,26.78
2018-07-15T18:18:04.978Z,26.75
2018-07-15T18:19:05.044Z,26.77
2018-07-15T18:20:58.049Z,26.62
2018-07-15T18:21:58.116Z,26.62
2018-07-15T18:23:51.133Z,26.56
2018-07-15T18:24:51.194Z,26.48
2018-07-15T18:26:44.201Z,26.43
2018-07-15T18:27:44.270Z,26.34
2018-07-15T18:29:37.274Z,26.23
2018-07-15T18:30:37.341Z,26.22
2018-07-15T18:32:30.345Z,26.13
2018-07-15T18:33:30.503Z,26.21
2018-07-15T18:35:23.434Z,26.10
2018-07-15T18:36:23.504Z,26.02
2018-07-15T18:38:16.491Z,26.03